createdAt,value
2022-08-17T00:00:34.197Z,18.40
2022-08-17T00:03:15.241Z,17.27
2022-08-17T00:05:49.922Z,19.75
2022-08-17T00:08:20.339Z,17.58
2022-08-17T00:10:48.904Z,21.20
2022-08-17T00:13:24.139Z,20.13
2022-08-17T00:15:50.980Z,15.68
2022-08-17T00:19:01.182Z,17.20
2022-08-17T00:21:10.557Z,18.77
2022-08-17T00:23:38.252Z,17.90
2022-08-17T00:26:05.246Z,18.70
2022-08-17T00:28:33.394Z,17.67
2022-08-17T00:31:00.658Z,18.33
2022-08-17T00:33:31.610Z,18.38
2022-08-17T00:35:59.762Z,16.98
2022-08-17T00:38:28.771Z,17.52
2022-08-17T00:41:00.947Z,20.95
2022-08-17T00:43:40.791Z,20.85
2022-08-17T00:46:13.388Z,19.45
2022-08-17T00:48:40.436Z,19.38
2022-08-17T00:51:22.814Z,17.85
2022-08-17T00:54:02.728Z,18.98
2022-08-17T00:56:36.543Z,20.90
2022-08-17T00:59:05.213Z,17.70
2022-08-17T01:01:32.884Z,19.10
2022-08-17T01:04:01.545Z,20.20
2022-08-17T01:06:28.800Z,20.03
2022-08-17T01:08:58.063Z,21.83
2022-08-17T01:11:25.793Z,18.60
2022-08-17T01:13:52.598Z,18.92
2022-08-17T01:16:26.780Z,19.40
2022-08-17T01:18:58.568Z,20.17
2022-08-17T01:21:31.221Z,21.67
2022-08-17T01:23:58.000Z,19.70
2022-08-17T01:26:24.684Z,20.20
2022-08-17T01:28:55.382Z,19.08
2022-08-17T01:31:25.240Z,18.77
2022-08-17T01:33:52.277Z,19.63
2022-08-17T01:36:19.040Z,20.90
2022-08-17T01:38:45.791Z,21.00
2022-08-17T01:41:16.836Z,19.23
2022-08-17T01:43:52.093Z,22.67
2022-08-17T01:46:27.181Z,21.23
2022-08-17T01:48:55.492Z,22.80
2022-08-17T01:51:22.468Z,20.13
2022-08-17T01:53:57.559Z,19.70
2022-08-17T01:56:26.373Z,19.33
2022-08-17T01:58:53.870Z,27.13
2022-08-17T02:01:24.194Z,19.85
2022-08-17T02:03:56.314Z,19.85
2022-08-17T02:06:29.956Z,20.48
2022-08-17T02:09:02.773Z,20.13
2022-08-17T02:11:33.030Z,20.35
2022-08-17T02:14:03.655Z,21.98
2022-08-17T02:16:38.318Z,22.60
2022-08-17T02:19:08.465Z,23.63
2022-08-17T02:21:36.861Z,25.95
2022-08-17T02:24:05.429Z,23.85
2022-08-17T02:26:32.959Z,23.50
2022-08-17T02:28:59.803Z,20.88
2022-08-17T02:31:26.449Z,19.27
2022-08-17T02:34:00.466Z,20.35
2022-08-17T02:36:34.728Z,21.65
2022-08-17T02:39:03.567Z,27.23
2022-08-17T02:41:32.835Z,26.10
2022-08-17T02:44:00.635Z,26.40
2022-08-17T02:46:27.430Z,24.45
2022-08-17T02:48:54.420Z,27.30
2022-08-17T02:51:21.181Z,23.27
2022-08-17T02:53:48.168Z,26.95
2022-08-17T02:56:14.868Z,28.25
2022-08-17T02:58:41.651Z,31.40
2022-08-17T03:01:10.289Z,27.90
2022-08-17T03:03:38.408Z,28.30
2022-08-17T03:06:07.701Z,26.02
2022-08-17T03:08:35.487Z,29.90
2022-08-17T03:11:03.966Z,32.42
2022-08-17T03:13:31.005Z,26.70
2022-08-17T03:15:58.699Z,32.22
2022-08-17T03:18:26.370Z,29.58
2022-08-17T03:20:55.441Z,32.15
2022-08-17T03:23:24.290Z,32.00
2022-08-17T03:25:53.646Z,31.42
2022-08-17T03:28:21.903Z,29.30
2022-08-17T03:30:48.913Z,27.52
2022-08-17T03:33:16.286Z,34.22
2022-08-17T03:35:43.069Z,36.08
2022-08-17T03:38:12.456Z,30.40
2022-08-17T03:40:58.517Z,34.90
2022-08-17T03:43:30.540Z,31.80
2022-08-17T03:46:28.341Z,38.47
2022-08-17T03:49:19.503Z,37.03
2022-08-17T03:52:07.094Z,31.05
2022-08-17T03:54:52.537Z,29.17
2022-08-17T03:57:19.498Z,30.98
2022-08-17T03:59:46.501Z,35.08
2022-08-17T04:02:19.827Z,35.63
2022-08-17T04:04:46.988Z,31.27
2022-08-17T04:07:13.733Z,29.40
2022-08-17T04:09:42.997Z,32.78
2022-08-17T04:12:11.458Z,26.77
2022-08-17T04:14:52.776Z,31.55
2022-08-17T04:17:21.768Z,34.83
2022-08-17T04:19:48.421Z,30.05
2022-08-17T04:22:30.997Z,31.00
2022-08-17T04:25:18.311Z,36.40
2022-08-17T04:27:45.229Z,32.92
2022-08-17T04:30:15.519Z,28.98
2022-08-17T04:33:04.597Z,30.65
2022-08-17T04:35:40.856Z,32.70
2022-08-17T04:38:09.373Z,31.00
2022-08-17T04:40:54.741Z,32.33
2022-08-17T04:43:24.013Z,37.75
2022-08-17T04:45:58.167Z,34.30
2022-08-17T04:48:36.364Z,36.45
2022-08-17T04:51:19.816Z,30.98
2022-08-17T04:53:54.346Z,37.20
2022-08-17T04:56:23.106Z,35.25
2022-08-17T04:58:52.070Z,41.95
2022-08-17T05:01:23.248Z,35.28
2022-08-17T05:03:52.622Z,39.80
2022-08-17T05:06:19.357Z,35.83
2022-08-17T05:08:46.040Z,31.40
2022-08-17T05:11:12.812Z,35.28
2022-08-17T05:13:39.467Z,32.13
2022-08-17T05:16:06.833Z,34.88
2022-08-17T05:18:33.507Z,33.20
2022-08-17T05:21:00.224Z,36.72
2022-08-17T05:23:42.109Z,40.92
2022-08-17T05:26:12.988Z,36.67
2022-08-17T05:28:53.919Z,41.33
2022-08-17T05:31:21.121Z,42.33
2022-08-17T05:33:49.573Z,37.95
2022-08-17T05:36:38.129Z,37.15
2022-08-17T05:39:04.361Z,36.20
2022-08-17T05:41:31.126Z,40.33
2022-08-17T05:43:58.753Z,43.85
2022-08-17T05:46:28.804Z,35.88
2022-08-17T05:49:08.067Z,37.92
2022-08-17T05:52:08.176Z,38.90
2022-08-17T05:54:47.775Z,36.65
2022-08-17T05:57:39.874Z,44.30
2022-08-17T06:00:30.868Z,37.47
2022-08-17T06:03:22.872Z,40.08
2022-08-17T06:05:58.755Z,34.53
2022-08-17T06:08:56.379Z,38.38
2022-08-17T06:11:37.415Z,37.33
2022-08-17T06:14:22.385Z,37.83
2022-08-17T06:16:54.956Z,42.80
2022-08-17T06:19:40.795Z,38.33
2022-08-17T06:22:10.917Z,34.10
2022-08-17T06:24:46.545Z,37.67
2022-08-17T06:27:16.248Z,40.55
2022-08-17T06:29:48.884Z,43.75
2022-08-17T06:32:17.290Z,34.97
2022-08-17T06:34:45.993Z,36.25
2022-08-17T06:37:34.440Z,36.28
2022-08-17T06:40:19.316Z,34.13
2022-08-17T06:43:16.516Z,35.53
2022-08-17T06:45:52.559Z,38.28
2022-08-17T06:48:32.006Z,33.40
2022-08-17T06:51:25.161Z,35.75
2022-08-17T06:54:03.512Z,41.50
2022-08-17T06:56:53.728Z,41.78
2022-08-17T06:59:56.354Z,41.08
2022-08-17T07:02:55.922Z,37.58
2022-08-17T07:08:03.264Z,38.88
2022-08-17T07:10:53.928Z,39.63
2022-08-17T07:13:49.330Z,37.50
2022-08-17T07:16:41.337Z,38.38
2022-08-17T07:19:11.021Z,37.45
2022-08-17T07:22:03.883Z,34.78
2022-08-17T07:24:35.978Z,30.80
2022-08-17T07:27:06.594Z,111.22
2022-08-17T07:29:39.995Z,35.83
2022-08-17T07:32:09.679Z,31.90
2022-08-17T07:35:02.370Z,30.00
2022-08-17T07:37:31.357Z,31.70
2022-08-17T07:39:59.521Z,28.15
2022-08-17T07:43:01.534Z,25.00
2022-08-17T07:45:49.541Z,28.20
2022-08-17T07:48:26.210Z,24.60
2022-08-17T07:50:53.374Z,20.02
2022-08-17T07:53:24.304Z,20.33
2022-08-17T07:55:55.226Z,19.55
2022-08-17T07:58:24.466Z,18.63
2022-08-17T08:03:34.140Z,17.45
2022-08-17T08:08:42.458Z,19.05
2022-08-17T08:11:30.334Z,20.38
2022-08-17T08:14:21.047Z,17.98
2022-08-17T08:17:00.677Z,16.08
2022-08-17T08:19:30.583Z,15.52
2022-08-17T08:22:07.732Z,18.23
2022-08-17T08:24:59.956Z,20.50
2022-08-17T08:27:48.802Z,18.80
2022-08-17T08:33:36.430Z,15.80
2022-08-17T08:37:13.054Z,17.63
2022-08-17T08:39:29.179Z,17.65
2022-08-17T08:42:10.759Z,19.40
2022-08-17T08:45:05.518Z,18.90
2022-08-17T08:47:54.846Z,16.50
2022-08-17T08:50:43.101Z,14.57
2022-08-17T08:53:19.090Z,17.27
2022-08-17T08:55:53.648Z,18.38
2022-08-17T08:58:31.923Z,18.15
2022-08-17T09:01:31.568Z,12.90
2022-08-17T09:04:25.146Z,12.98
2022-08-17T09:07:22.724Z,17.48
2022-08-17T09:10:02.762Z,12.20
2022-08-17T09:12:51.631Z,15.13
2022-08-17T09:15:26.722Z,11.85
2022-08-17T09:18:59.104Z,11.52
2022-08-17T09:21:01.115Z,11.48
2022-08-17T09:23:33.291Z,12.95
2022-08-17T09:26:49.022Z,21.20
2022-08-17T09:29:17.543Z,11.43
2022-08-17T09:31:52.760Z,11.27
2022-08-17T09:34:33.035Z,10.73
2022-08-17T09:37:34.064Z,13.70
2022-08-17T09:40:09.756Z,11.93
2022-08-17T09:42:53.986Z,16.35
2022-08-17T09:45:45.315Z,10.43
2022-08-17T09:48:27.648Z,11.63
2022-08-17T09:51:07.184Z,14.70
2022-08-17T09:53:37.562Z,11.77
2022-08-17T09:56:34.805Z,14.13
2022-08-17T09:59:14.032Z,10.82
2022-08-17T10:01:47.036Z,11.00
2022-08-17T10:04:55.301Z,12.90
2022-08-17T10:07:38.337Z,11.43
2022-08-17T10:10:30.063Z,11.90
2022-08-17T10:13:12.878Z,12.30
2022-08-17T10:15:59.108Z,12.25
2022-08-17T10:18:49.116Z,12.82
2022-08-17T10:21:36.340Z,14.38
2022-08-17T10:24:36.506Z,12.20
2022-08-17T10:27:09.106Z,15.77
2022-08-17T10:29:49.255Z,13.15
2022-08-17T10:32:49.840Z,12.38
2022-08-17T10:35:36.252Z,12.32
2022-08-17T10:38:27.441Z,16.50
2022-08-17T10:41:00.750Z,11.88
2022-08-17T10:43:36.939Z,12.80
2022-08-17T10:46:45.096Z,16.02
2022-08-17T10:49:17.575Z,15.38
2022-08-17T10:51:52.490Z,13.40
2022-08-17T10:54:24.971Z,14.68
2022-08-17T10:56:57.057Z,13.90
2022-08-17T10:59:35.530Z,16.00
2022-08-17T11:02:04.893Z,13.35
2022-08-17T11:05:08.380Z,14.85
2022-08-17T11:07:48.682Z,13.82
2022-08-17T11:10:23.892Z,14.13
2022-08-17T11:13:03.700Z,14.77
2022-08-17T11:15:49.627Z,14.05
2022-08-17T11:18:53.957Z,11.77
2022-08-17T11:21:52.097Z,23.02
2022-08-17T11:24:32.450Z,11.50
2022-08-17T11:27:04.547Z,12.70
2022-08-17T11:30:02.942Z,11.10
2022-08-17T11:32:47.337Z,11.85
2022-08-17T11:35:19.232Z,13.50
2022-08-17T11:38:04.221Z,10.77
2022-08-17T11:40:55.411Z,16.80
2022-08-17T11:43:29.300Z,11.95
2022-08-17T11:46:54.352Z,13.35
2022-08-17T11:49:55.810Z,9.98
2022-08-17T11:52:40.989Z,9.75
2022-08-17T11:55:34.004Z,9.55
2022-08-17T11:58:17.939Z,10.05
2022-08-17T12:00:54.818Z,10.73
2022-08-17T12:03:33.523Z,10.80
2022-08-17T12:06:23.074Z,14.13
2022-08-17T12:11:56.324Z,10.30
2022-08-17T12:15:07.931Z,13.55
2022-08-17T12:17:40.637Z,9.63
2022-08-17T12:20:19.983Z,9.30
2022-08-17T12:23:14.439Z,13.40
2022-08-17T12:26:04.360Z,10.80
2022-08-17T12:28:38.836Z,11.10
2022-08-17T12:31:24.698Z,9.85
2022-08-17T12:33:51.950Z,10.48
2022-08-17T12:36:25.096Z,9.55
2022-08-17T12:39:13.860Z,10.75
2022-08-17T12:41:50.252Z,10.77
2022-08-17T12:44:17.117Z,13.27
2022-08-17T12:46:51.829Z,10.98
2022-08-17T12:49:36.730Z,10.88
2022-08-17T12:52:11.382Z,12.60
2022-08-17T12:54:59.647Z,12.20
2022-08-17T12:57:33.467Z,13.43
2022-08-17T13:00:16.340Z,11.50
2022-08-17T13:02:58.524Z,18.40
2022-08-17T13:05:30.759Z,17.63
2022-08-17T13:08:00.756Z,12.80
2022-08-17T13:10:33.036Z,10.05
2022-08-17T13:13:05.003Z,13.82
2022-08-17T13:15:44.697Z,12.38
2022-08-17T13:18:39.314Z,12.10
2022-08-17T13:21:12.633Z,11.65
2022-08-17T13:23:39.710Z,12.88
2022-08-17T13:26:16.242Z,11.00
2022-08-17T13:28:51.631Z,11.70
2022-08-17T13:31:30.428Z,12.57
2022-08-17T13:34:26.692Z,10.68
2022-08-17T13:37:32.644Z,11.48
2022-08-17T13:40:05.178Z,13.88
2022-08-17T13:42:55.511Z,11.32
2022-08-17T13:45:38.853Z,18.42
2022-08-17T13:48:08.848Z,9.25
2022-08-17T13:50:48.728Z,12.57
2022-08-17T13:53:30.095Z,13.23
2022-08-17T13:56:38.007Z,11.57
2022-08-17T13:59:11.821Z,12.40
2022-08-17T14:01:49.640Z,10.57
2022-08-17T14:04:27.875Z,10.05
2022-08-17T14:07:11.591Z,8.60
2022-08-17T14:09:46.744Z,9.98
2022-08-17T14:12:16.343Z,11.55
2022-08-17T14:14:44.581Z,10.98
2022-08-17T14:17:13.639Z,11.13
2022-08-17T14:19:40.328Z,9.18
2022-08-17T14:22:12.724Z,11.50
2022-08-17T14:24:44.664Z,11.18
2022-08-17T14:27:12.146Z,9.57
2022-08-17T14:29:41.256Z,16.33
2022-08-17T14:32:21.284Z,11.77
2022-08-17T14:34:49.772Z,13.32
2022-08-17T14:37:21.351Z,10.35
2022-08-17T14:39:48.365Z,12.85
2022-08-17T14:42:18.438Z,15.50
2022-08-17T14:44:45.101Z,15.55
2022-08-17T14:47:16.571Z,9.65
2022-08-17T14:49:43.825Z,14.57
2022-08-17T14:52:16.635Z,16.48
2022-08-17T14:54:45.792Z,14.68
2022-08-17T14:57:25.808Z,13.93
2022-08-17T14:59:59.935Z,20.05
2022-08-17T15:02:31.156Z,14.00
2022-08-17T15:05:03.672Z,12.70
2022-08-17T15:07:34.142Z,12.15
2022-08-17T15:10:02.038Z,9.40
2022-08-17T15:12:33.183Z,14.48
2022-08-17T15:15:06.413Z,13.40
2022-08-17T15:17:44.180Z,14.15
2022-08-17T15:20:15.833Z,13.07
2022-08-17T15:22:44.178Z,13.02
2022-08-17T15:25:11.840Z,13.73
2022-08-17T15:27:39.127Z,16.98
2022-08-17T15:30:07.787Z,12.45
2022-08-17T15:32:38.205Z,12.95
2022-08-17T15:35:06.902Z,13.70
2022-08-17T15:37:33.896Z,17.83
2022-08-17T15:40:03.283Z,13.93
2022-08-17T15:42:30.030Z,15.05
2022-08-17T15:44:56.843Z,14.85
2022-08-17T15:47:24.491Z,11.60
2022-08-17T15:49:51.158Z,10.02
2022-08-17T15:52:24.985Z,14.68
2022-08-17T15:54:58.927Z,12.75
2022-08-17T15:57:27.153Z,12.80
2022-08-17T15:59:58.646Z,12.07
2022-08-17T16:03:14.448Z,15.32
2022-08-17T16:05:24.896Z,13.18
2022-08-17T16:07:52.617Z,13.30
2022-08-17T16:10:21.762Z,14.15
2022-08-17T16:13:02.321Z,12.07
2022-08-17T16:15:31.282Z,11.65
2022-08-17T16:20:27.947Z,10.48
2022-08-17T16:22:55.126Z,16.58
2022-08-17T16:25:51.951Z,18.55
2022-08-17T16:28:16.123Z,18.23
2022-08-17T16:30:43.661Z,18.13
2022-08-17T16:33:11.735Z,12.02
2022-08-17T16:35:38.422Z,13.57
2022-08-17T16:38:05.249Z,12.48
2022-08-17T16:40:35.979Z,15.73
2022-08-17T16:45:36.857Z,12.30
2022-08-17T16:48:04.931Z,11.35
2022-08-17T16:50:32.654Z,12.02
2022-08-17T16:53:11.876Z,12.77
2022-08-17T16:55:38.709Z,12.98
2022-08-17T16:58:06.583Z,12.90
2022-08-17T17:00:36.254Z,12.48
2022-08-17T17:03:26.818Z,11.20
2022-08-17T17:06:06.562Z,16.50
2022-08-17T17:08:44.359Z,14.30
2022-08-17T17:11:25.033Z,11.30
2022-08-17T17:14:02.237Z,17.38
2022-08-17T17:16:40.321Z,16.27
2022-08-17T17:19:34.210Z,15.63
2022-08-17T17:22:30.222Z,12.85
2022-08-17T17:25:20.421Z,15.90
2022-08-17T17:28:24.962Z,15.32
2022-08-17T17:31:05.208Z,13.00
2022-08-17T17:33:50.613Z,18.80
2022-08-17T17:36:46.704Z,18.00
2022-08-17T17:39:29.306Z,14.07
2022-08-17T17:42:07.855Z,22.00
2022-08-17T17:44:41.692Z,15.00
2022-08-17T17:47:09.622Z,17.45
2022-08-17T17:49:42.019Z,16.23
2022-08-17T17:52:15.567Z,12.98
2022-08-17T17:55:01.966Z,13.50
2022-08-17T17:57:56.412Z,13.65
2022-08-17T18:00:35.688Z,15.60
2022-08-17T18:03:14.228Z,13.50
2022-08-17T18:06:01.396Z,14.73
2022-08-17T18:08:31.961Z,16.42
2022-08-17T18:11:26.879Z,22.92
2022-08-17T18:14:20.685Z,23.27
2022-08-17T18:16:55.812Z,21.63
2022-08-17T18:19:25.516Z,16.48
2022-08-17T18:22:14.431Z,17.33
2022-08-17T18:24:44.773Z,15.75
2022-08-17T18:27:20.347Z,16.80
2022-08-17T18:29:48.275Z,23.45
2022-08-17T18:32:36.772Z,26.80
2022-08-17T18:35:09.401Z,19.90
2022-08-17T18:37:37.895Z,17.50
2022-08-17T18:40:16.658Z,21.70
2022-08-17T18:43:03.475Z,18.17
2022-08-17T18:45:44.743Z,16.92
2022-08-17T18:48:59.310Z,19.27
2022-08-17T18:51:42.269Z,16.55
2022-08-17T18:54:15.658Z,16.55
2022-08-17T18:56:48.948Z,14.25
2022-08-17T18:59:21.716Z,18.95
2022-08-17T19:02:27.216Z,18.38
2022-08-17T19:05:01.518Z,16.10
2022-08-17T19:07:28.215Z,15.90
2022-08-17T19:10:28.879Z,15.68
2022-08-17T19:13:02.030Z,18.40
2022-08-17T19:15:45.406Z,22.83
2022-08-17T19:18:37.196Z,19.73
2022-08-17T19:21:12.379Z,17.10
2022-08-17T19:23:54.016Z,19.10
2022-08-17T19:26:51.345Z,17.25
2022-08-17T19:29:25.864Z,19.63
2022-08-17T19:31:56.187Z,18.63
2022-08-17T19:34:33.577Z,16.80
2022-08-17T19:37:25.713Z,15.85
2022-08-17T19:40:29.329Z,18.63
2022-08-17T19:43:15.173Z,24.63
2022-08-17T19:46:12.194Z,16.75
2022-08-17T19:49:04.007Z,16.27
2022-08-17T19:51:41.663Z,23.35
2022-08-17T19:54:22.254Z,16.77
2022-08-17T19:57:08.441Z,21.65
2022-08-17T19:59:50.467Z,16.17
2022-08-17T20:02:35.216Z,16.45
2022-08-17T20:05:14.043Z,16.83
2022-08-17T20:08:20.481Z,19.33
2022-08-17T20:11:07.479Z,19.08
2022-08-17T20:13:52.293Z,21.20
2022-08-17T20:16:20.634Z,19.27
2022-08-17T20:18:51.991Z,19.95
2022-08-17T20:21:26.120Z,24.23
2022-08-17T20:24:10.963Z,17.67
2022-08-17T20:26:58.646Z,20.02
2022-08-17T20:29:37.252Z,24.15
2022-08-17T20:32:47.542Z,19.05
2022-08-17T20:35:25.294Z,19.75
2022-08-17T20:38:05.667Z,22.48
2022-08-17T20:40:38.575Z,24.02
2022-08-17T20:43:30.165Z,23.80
2022-08-17T20:46:34.436Z,19.75
2022-08-17T20:49:16.572Z,26.95
2022-08-17T20:52:07.800Z,23.92
2022-08-17T20:54:57.439Z,27.15
2022-08-17T20:57:33.090Z,26.05
2022-08-17T21:00:17.073Z,23.70
2022-08-17T21:02:46.887Z,28.95
2022-08-17T21:05:36.383Z,19.65
2022-08-17T21:08:18.493Z,23.38
2022-08-17T21:10:47.097Z,20.23
2022-08-17T21:13:15.936Z,30.27
2022-08-17T21:15:45.977Z,24.70
2022-08-17T21:18:31.478Z,21.85
2022-08-17T21:21:17.808Z,22.75
2022-08-17T21:24:02.683Z,22.40
2022-08-17T21:26:39.033Z,21.83
2022-08-17T21:29:32.505Z,20.58
2022-08-17T21:32:03.257Z,23.02
2022-08-17T21:37:19.912Z,23.27
2022-08-17T21:40:10.323Z,25.80
2022-08-17T21:42:44.907Z,25.02
2022-08-17T21:45:21.074Z,26.63
2022-08-17T21:47:50.043Z,21.83
2022-08-17T21:50:22.510Z,22.25
2022-08-17T21:52:53.997Z,30.23
2022-08-17T21:55:30.241Z,25.40
2022-08-17T21:58:14.325Z,21.40
2022-08-17T22:00:44.317Z,24.90
2022-08-17T22:03:23.777Z,22.42
2022-08-17T22:05:51.685Z,23.55
2022-08-17T22:08:24.375Z,23.25
2022-08-17T22:11:01.125Z,22.45
2022-08-17T22:13:29.614Z,23.48
2022-08-17T22:16:28.440Z,28.17
2022-08-17T22:18:58.691Z,22.08
2022-08-17T22:21:26.296Z,25.15
2022-08-17T22:24:06.806Z,22.95
2022-08-17T22:27:11.079Z,20.88
2022-08-17T22:29:42.904Z,27.85
2022-08-17T22:32:10.027Z,23.48
2022-08-17T22:34:38.569Z,23.98
2022-08-17T22:37:27.356Z,26.70
2022-08-17T22:42:25.262Z,28.33
2022-08-17T22:44:53.685Z,25.05
2022-08-17T22:47:38.973Z,25.50
2022-08-17T22:50:22.577Z,26.45
2022-08-17T22:53:36.483Z,26.20
2022-08-17T22:56:23.051Z,25.25
2022-08-17T22:59:16.559Z,28.10
2022-08-17T23:02:05.043Z,24.27
2022-08-17T23:04:36.024Z,27.23
2022-08-17T23:07:04.341Z,28.23
2022-08-17T23:09:31.052Z,25.80
2022-08-17T23:11:58.868Z,26.02
2022-08-17T23:14:31.739Z,26.40
2022-08-17T23:16:59.660Z,24.42
2022-08-17T23:19:27.814Z,24.38
2022-08-17T23:21:56.474Z,24.73
2022-08-17T23:24:25.892Z,25.35
2022-08-17T23:26:53.401Z,23.98
2022-08-17T23:29:21.605Z,24.02
2022-08-17T23:31:49.393Z,24.25
2022-08-17T23:34:18.487Z,25.33
2022-08-17T23:36:52.572Z,26.27
2022-08-17T23:39:27.309Z,25.58
2022-08-17T23:41:58.091Z,28.73
2022-08-17T23:44:25.745Z,26.75
2022-08-17T23:46:53.617Z,27.33
2022-08-17T23:49:20.998Z,25.30
2022-08-17T23:51:48.900Z,27.10
2022-08-17T23:54:26.990Z,27.77
2022-08-17T23:56:54.068Z,30.00
2022-08-17T23:59:22.679Z,30.75
